createdAt,value
2018-12-05T00:01:51.929Z,5.20
2018-12-05T00:04:20.460Z,5.20
2018-12-05T00:06:48.981Z,5.20
2018-12-05T00:09:17.545Z,5.10
2018-12-05T00:11:46.674Z,5.20
2018-12-05T00:14:15.155Z,5.20
2018-12-05T00:16:44.452Z,5.20
2018-12-05T00:19:12.958Z,5.30
2018-12-05T00:21:41.624Z,5.30
2018-12-05T00:24:10.969Z,5.40
2018-12-05T00:26:39.501Z,5.50
2018-12-05T00:29:08.116Z,5.50
2018-12-05T00:31:36.560Z,5.60
2018-12-05T00:34:05.396Z,5.50
2018-12-05T00:36:34.525Z,5.40
2018-12-05T00:39:04.563Z,5.40
2018-12-05T00:41:33.140Z,5.40
2018-12-05T00:44:01.823Z,5.30
2018-12-05T00:46:30.717Z,5.20
2018-12-05T00:48:59.209Z,5.00
2018-12-05T00:51:27.855Z,5.00
2018-12-05T00:53:56.382Z,5.00
2018-12-05T00:56:24.837Z,4.90
2018-12-05T00:59:00.044Z,4.90
2018-12-05T01:01:28.995Z,4.90
2018-12-05T01:03:57.466Z,4.90
2018-12-05T01:06:25.944Z,4.80
2018-12-05T01:08:54.358Z,4.90
2018-12-05T01:11:22.781Z,4.90
2018-12-05T01:13:51.565Z,4.90
2018-12-05T01:16:20.225Z,4.90
2018-12-05T01:18:49.064Z,4.90
2018-12-05T01:21:17.525Z,5.00
2018-12-05T01:23:46.677Z,5.00
2018-12-05T01:26:15.184Z,5.00
2018-12-05T01:28:44.502Z,5.00
2018-12-05T01:31:12.987Z,5.10
2018-12-05T01:33:42.442Z,5.20
2018-12-05T01:36:10.939Z,5.20
2018-12-05T01:38:39.391Z,5.10
2018-12-05T01:41:08.094Z,5.10
2018-12-05T01:43:41.851Z,5.00
2018-12-05T01:46:10.448Z,5.10
2018-12-05T01:48:38.900Z,5.00
2018-12-05T01:51:07.830Z,5.10
2018-12-05T01:53:36.388Z,5.20
2018-12-05T01:56:05.374Z,5.30
2018-12-05T01:58:34.635Z,5.40
2018-12-05T02:01:03.477Z,5.30
2018-12-05T02:03:32.041Z,5.20
2018-12-05T02:06:01.291Z,5.20
2018-12-05T02:08:30.264Z,5.20
2018-12-05T02:10:58.882Z,5.10
2018-12-05T02:13:27.738Z,5.10
2018-12-05T02:15:56.424Z,5.10
2018-12-05T02:18:24.882Z,5.10
2018-12-05T02:20:53.719Z,5.00
2018-12-05T02:23:22.795Z,5.00
2018-12-05T02:25:51.303Z,4.90
2018-12-05T02:28:20.026Z,4.90
2018-12-05T02:30:48.636Z,4.80
2018-12-05T02:33:17.175Z,4.80
2018-12-05T02:35:46.099Z,4.80
2018-12-05T02:38:14.559Z,4.80
2018-12-05T02:40:43.007Z,4.80
2018-12-05T02:43:12.123Z,4.90
2018-12-05T02:45:40.616Z,5.00
2018-12-05T02:48:09.227Z,5.10
2018-12-05T02:50:38.125Z,5.10
2018-12-05T02:53:06.804Z,4.90
2018-12-05T02:55:35.975Z,4.80
2018-12-05T02:58:05.104Z,4.70
2018-12-05T03:00:34.488Z,4.70
2018-12-05T03:03:02.931Z,4.60
2018-12-05T03:05:31.850Z,4.60
2018-12-05T03:08:01.072Z,4.50
2018-12-05T03:10:30.341Z,4.50
2018-12-05T03:12:58.891Z,4.60
2018-12-05T03:15:27.339Z,4.50
2018-12-05T03:17:56.860Z,4.40
2018-12-05T03:20:26.147Z,4.30
2018-12-05T03:22:55.373Z,4.20
2018-12-05T03:25:24.497Z,4.10
2018-12-05T03:27:53.449Z,4.10
2018-12-05T03:30:22.705Z,4.10
2018-12-05T03:32:51.214Z,4.10
2018-12-05T03:35:23.864Z,4.20
2018-12-05T03:37:52.952Z,4.30
2018-12-05T03:40:21.848Z,4.40
2018-12-05T03:42:50.435Z,4.40
2018-12-05T03:45:18.888Z,4.50
2018-12-05T03:47:47.329Z,4.60
2018-12-05T03:50:16.345Z,4.70
2018-12-05T03:52:45.933Z,4.70
2018-12-05T03:55:15.449Z,4.80
2018-12-05T03:57:45.540Z,4.70
2018-12-05T04:00:14.884Z,4.70
2018-12-05T04:02:44.047Z,4.70
2018-12-05T04:05:12.763Z,4.80
2018-12-05T04:07:41.283Z,4.90
2018-12-05T04:10:10.341Z,4.90
2018-12-05T04:12:40.779Z,5.00
2018-12-05T04:15:10.282Z,5.00
2018-12-05T04:17:39.369Z,4.90
2018-12-05T04:20:08.639Z,4.80
2018-12-05T04:22:37.216Z,4.80
2018-12-05T04:25:05.952Z,4.90
2018-12-05T04:27:34.549Z,4.90
2018-12-05T04:30:03.460Z,5.00
2018-12-05T04:32:31.979Z,5.00
2018-12-05T04:35:00.597Z,5.10
2018-12-05T04:37:29.176Z,5.10
2018-12-05T04:39:57.674Z,5.20
2018-12-05T04:42:26.668Z,5.10
2018-12-05T04:44:55.127Z,5.10
2018-12-05T04:47:24.261Z,5.00
2018-12-05T04:49:52.824Z,5.00
2018-12-05T04:52:21.408Z,4.90
2018-12-05T04:54:49.894Z,4.90
2018-12-05T04:57:19.272Z,4.90
2018-12-05T04:59:48.436Z,5.00
2018-12-05T05:02:16.911Z,5.10
2018-12-05T05:04:45.609Z,5.10
2018-12-05T05:07:14.468Z,5.10
2018-12-05T05:09:43.047Z,5.20
2018-12-05T05:12:12.345Z,5.30
2018-12-05T05:14:41.143Z,5.30
2018-12-05T05:17:10.801Z,5.20
2018-12-05T05:19:39.282Z,5.10
2018-12-05T05:22:08.058Z,5.00
2018-12-05T05:24:36.747Z,4.90
2018-12-05T05:27:05.734Z,4.90
2018-12-05T05:29:34.508Z,4.90
2018-12-05T05:32:03.315Z,4.90
2018-12-05T05:34:31.769Z,4.90
2018-12-05T05:37:00.648Z,4.90
2018-12-05T05:39:29.180Z,4.90
2018-12-05T05:41:58.325Z,5.00
2018-12-05T05:44:27.353Z,5.10
2018-12-05T05:46:56.022Z,5.20
2018-12-05T05:49:24.713Z,5.30
2018-12-05T05:51:53.936Z,5.20
2018-12-05T05:54:23.371Z,5.20
2018-12-05T05:56:51.888Z,5.10
2018-12-05T05:59:20.426Z,5.10
2018-12-05T06:01:48.910Z,5.20
2018-12-05T06:04:18.035Z,5.10
2018-12-05T06:06:47.365Z,5.20
2018-12-05T06:09:18.055Z,5.10
2018-12-05T06:11:47.072Z,5.10
2018-12-05T06:14:15.788Z,5.20
2018-12-05T06:16:44.928Z,5.20
2018-12-05T06:19:13.360Z,5.20
2018-12-05T06:21:41.982Z,5.20
2018-12-05T06:24:11.173Z,5.20
2018-12-05T06:26:39.747Z,5.20
2018-12-05T06:29:08.195Z,5.20
2018-12-05T06:31:36.820Z,5.20
2018-12-05T06:34:05.497Z,5.20
2018-12-05T06:36:34.539Z,5.20
2018-12-05T06:39:04.400Z,5.20
2018-12-05T06:41:32.968Z,5.20
2018-12-05T06:44:01.652Z,5.30
2018-12-05T06:46:30.195Z,5.20
2018-12-05T06:48:58.885Z,5.20
2018-12-05T06:51:27.638Z,5.20
2018-12-05T06:53:57.050Z,5.20
2018-12-05T06:56:26.011Z,5.20
2018-12-05T06:58:55.611Z,5.30
2018-12-05T07:01:24.087Z,5.30
2018-12-05T07:03:53.873Z,5.30
2018-12-05T07:06:22.531Z,5.30
2018-12-05T07:08:51.087Z,5.20
2018-12-05T07:11:20.392Z,5.30
2018-12-05T07:13:48.853Z,5.30
2018-12-05T07:16:17.403Z,5.30
2018-12-05T07:18:45.961Z,5.30
2018-12-05T07:21:14.959Z,5.40
2018-12-05T07:23:43.592Z,5.40
2018-12-05T07:26:18.891Z,5.40
2018-12-05T07:28:47.358Z,5.40
2018-12-05T07:31:16.102Z,5.40
2018-12-05T07:33:45.409Z,5.50
2018-12-05T07:36:13.872Z,5.60
2018-12-05T07:38:42.630Z,5.60
2018-12-05T07:41:11.243Z,5.60
2018-12-05T07:43:40.005Z,5.60
2018-12-05T07:46:08.698Z,5.70
2018-12-05T07:48:37.776Z,5.70
2018-12-05T07:51:06.406Z,5.80
2018-12-05T07:53:35.142Z,5.80
2018-12-05T07:56:03.795Z,5.90
2018-12-05T07:58:32.681Z,6.00
2018-12-05T08:01:01.154Z,6.00
2018-12-05T08:03:29.750Z,6.00
2018-12-05T08:05:59.004Z,6.00
2018-12-05T08:08:27.563Z,6.10
2018-12-05T08:10:56.837Z,6.00
2018-12-05T08:13:25.411Z,6.00
2018-12-05T08:15:54.363Z,5.90
2018-12-05T08:18:22.812Z,5.80
2018-12-05T08:20:58.322Z,5.80
2018-12-05T08:23:26.892Z,5.70
2018-12-05T08:25:55.958Z,5.70
2018-12-05T08:28:24.443Z,5.70
2018-12-05T08:30:53.518Z,5.70
2018-12-05T08:33:22.462Z,5.70
2018-12-05T08:35:51.012Z,5.80
2018-12-05T08:38:19.647Z,5.80
2018-12-05T08:40:48.121Z,5.80
2018-12-05T08:43:16.836Z,5.80
2018-12-05T08:45:45.378Z,5.90
2018-12-05T08:48:14.133Z,5.90
2018-12-05T08:50:42.615Z,5.90
2018-12-05T08:53:11.771Z,6.00
2018-12-05T08:55:40.539Z,6.10
2018-12-05T08:58:09.132Z,6.10
2018-12-05T09:00:39.377Z,6.20
2018-12-05T09:03:08.587Z,6.30
2018-12-05T09:05:37.174Z,6.40
2018-12-05T09:08:05.833Z,6.40
2018-12-05T09:10:34.290Z,6.50
2018-12-05T09:13:03.631Z,6.60
2018-12-05T09:15:32.859Z,6.50
2018-12-05T09:18:01.333Z,6.50
2018-12-05T09:20:29.831Z,6.60
2018-12-05T09:22:58.346Z,6.70
2018-12-05T09:25:27.191Z,6.80
2018-12-05T09:27:55.982Z,7.00
2018-12-05T09:30:24.624Z,7.10
2018-12-05T09:32:53.332Z,7.20
2018-12-05T09:35:21.984Z,7.20
2018-12-05T09:37:50.507Z,7.40
2018-12-05T09:40:19.084Z,7.50
2018-12-05T09:42:47.597Z,7.60
2018-12-05T09:45:16.470Z,7.80
2018-12-05T09:47:45.139Z,8.00
2018-12-05T09:50:13.641Z,8.00
2018-12-05T09:52:42.846Z,8.10
2018-12-05T09:55:11.398Z,8.10
2018-12-05T09:57:40.579Z,8.10
2018-12-05T10:00:10.929Z,8.10
2018-12-05T10:02:39.481Z,8.00
2018-12-05T10:05:08.942Z,7.90
2018-12-05T10:07:37.544Z,8.00
2018-12-05T10:10:07.955Z,8.10
2018-12-05T10:12:36.616Z,8.20
2018-12-05T10:15:06.512Z,8.20
2018-12-05T10:17:35.020Z,8.30
2018-12-05T10:20:04.859Z,8.40
2018-12-05T10:22:33.783Z,8.30
2018-12-05T10:25:02.559Z,8.50
2018-12-05T10:27:30.984Z,8.50
2018-12-05T10:29:59.514Z,8.50
2018-12-05T10:32:27.944Z,8.50
2018-12-05T10:34:56.399Z,8.60
2018-12-05T10:37:25.254Z,8.60
2018-12-05T10:39:53.799Z,8.60
2018-12-05T10:42:23.936Z,8.50
2018-12-05T10:44:52.653Z,8.60
2018-12-05T10:47:21.339Z,8.70
2018-12-05T10:49:49.828Z,8.80
2018-12-05T10:52:18.352Z,8.70
2018-12-05T10:54:46.984Z,8.60
2018-12-05T10:57:16.418Z,8.60
2018-12-05T10:59:45.276Z,8.80
2018-12-05T11:02:19.228Z,8.70
2018-12-05T11:04:59.645Z,8.70
2018-12-05T11:07:33.875Z,8.80
2018-12-05T11:10:07.949Z,8.90
2018-12-05T11:12:41.849Z,8.90
2018-12-05T11:15:15.901Z,9.00
2018-12-05T11:17:49.739Z,9.00
2018-12-05T11:20:24.007Z,9.00
2018-12-05T11:22:58.058Z,9.10
2018-12-05T11:25:26.855Z,9.20
2018-12-05T11:27:55.658Z,9.00
2018-12-05T11:30:24.816Z,8.80
2018-12-05T11:32:53.730Z,8.90
2018-12-05T11:35:22.283Z,8.80
2018-12-05T11:37:51.024Z,8.80
2018-12-05T11:40:19.676Z,8.80
2018-12-05T11:42:48.943Z,8.80
2018-12-05T11:45:18.287Z,8.80
2018-12-05T11:47:46.986Z,9.00
2018-12-05T11:50:15.614Z,9.20
2018-12-05T11:52:44.228Z,9.30
2018-12-05T11:55:13.466Z,9.30
2018-12-05T11:57:42.036Z,9.30
2018-12-05T12:00:10.641Z,9.50
2018-12-05T12:02:39.790Z,9.60
2018-12-05T12:05:08.367Z,9.50
2018-12-05T12:07:37.330Z,9.60
2018-12-05T12:10:06.356Z,10.00
2018-12-05T12:12:40.787Z,10.30
2018-12-05T12:15:09.916Z,10.70
2018-12-05T12:17:39.043Z,10.90
2018-12-05T12:20:07.916Z,11.00
2018-12-05T12:22:36.605Z,10.80
2018-12-05T12:25:05.559Z,10.80
2018-12-05T12:27:34.421Z,10.90
2018-12-05T12:30:03.229Z,11.10
2018-12-05T12:32:32.057Z,11.40
2018-12-05T12:35:01.356Z,11.60
2018-12-05T12:37:29.880Z,11.50
2018-12-05T12:39:58.436Z,11.50
2018-12-05T12:42:27.375Z,11.30
2018-12-05T12:44:57.545Z,11.20
2018-12-05T12:47:27.281Z,11.20
2018-12-05T12:49:55.872Z,11.20
2018-12-05T12:52:24.464Z,11.50
2018-12-05T12:54:53.014Z,11.70
2018-12-05T12:57:21.723Z,11.60
2018-12-05T12:59:50.799Z,11.50
2018-12-05T13:02:20.171Z,11.50
2018-12-05T13:04:49.051Z,11.50
2018-12-05T13:07:17.628Z,11.30
2018-12-05T13:09:46.604Z,11.40
2018-12-05T13:12:19.436Z,11.40
2018-12-05T13:14:48.295Z,11.40
2018-12-05T13:17:17.541Z,11.50
2018-12-05T13:19:46.033Z,11.50
2018-12-05T13:22:14.753Z,11.40
2018-12-05T13:24:43.364Z,11.30
2018-12-05T13:27:12.053Z,11.30
2018-12-05T13:29:40.755Z,11.20
2018-12-05T13:32:09.382Z,11.20
2018-12-05T13:34:37.987Z,11.10
2018-12-05T13:37:06.844Z,11.10
2018-12-05T13:39:35.384Z,11.10
2018-12-05T13:42:04.190Z,11.10
2018-12-05T13:44:33.165Z,11.10
2018-12-05T13:47:02.274Z,11.10
2018-12-05T13:49:31.637Z,11.20
2018-12-05T13:52:00.291Z,11.20
2018-12-05T13:54:29.860Z,11.20
2018-12-05T13:56:58.454Z,11.20
2018-12-05T13:59:27.390Z,11.00
2018-12-05T14:02:01.439Z,10.90
2018-12-05T14:04:30.022Z,10.90
2018-12-05T14:06:59.006Z,10.90
2018-12-05T14:09:27.456Z,10.90
2018-12-05T14:11:56.141Z,10.90
2018-12-05T14:14:24.746Z,10.80
2018-12-05T14:16:53.844Z,10.80
2018-12-05T14:19:22.369Z,10.80
2018-12-05T14:21:50.986Z,10.80
2018-12-05T14:24:19.579Z,10.70
2018-12-05T14:26:48.166Z,10.70
2018-12-05T14:29:16.603Z,10.70
2018-12-05T14:31:45.465Z,10.60
2018-12-05T14:34:14.663Z,10.50
2018-12-05T14:36:43.166Z,10.40
2018-12-05T14:39:12.195Z,10.30
2018-12-05T14:41:40.836Z,10.20
2018-12-05T14:44:09.471Z,10.20
2018-12-05T14:46:38.054Z,10.00
2018-12-05T14:49:06.751Z,10.00
2018-12-05T14:51:35.266Z,9.90
2018-12-05T14:54:04.000Z,9.80
2018-12-05T14:56:33.082Z,9.80
2018-12-05T14:59:01.770Z,9.90
2018-12-05T15:01:30.360Z,9.80
2018-12-05T15:03:59.409Z,9.80
2018-12-05T15:06:27.872Z,9.70
2018-12-05T15:08:56.500Z,9.60
2018-12-05T15:11:25.115Z,9.60
2018-12-05T15:13:53.622Z,9.50
2018-12-05T15:16:22.185Z,9.60
2018-12-05T15:18:51.610Z,9.60
2018-12-05T15:21:20.663Z,9.50
2018-12-05T15:23:49.271Z,9.50
2018-12-05T15:26:18.994Z,9.40
2018-12-05T15:28:47.984Z,9.40
2018-12-05T15:31:16.585Z,9.30
2018-12-05T15:33:45.163Z,9.30
2018-12-05T15:36:13.732Z,9.20
2018-12-05T15:38:42.296Z,9.20
2018-12-05T15:41:10.600Z,9.10
2018-12-05T15:43:39.114Z,9.10
2018-12-05T15:46:07.999Z,9.00
2018-12-05T15:48:37.199Z,9.00
2018-12-05T15:51:05.778Z,9.00
2018-12-05T15:53:35.128Z,9.00
2018-12-05T15:56:03.849Z,9.00
2018-12-05T15:58:32.901Z,9.00
2018-12-05T16:01:01.469Z,8.90
2018-12-05T16:03:30.969Z,8.80
2018-12-05T16:05:59.714Z,8.80
2018-12-05T16:08:28.406Z,8.80
2018-12-05T16:10:57.019Z,8.80
2018-12-05T16:13:25.739Z,8.70
2018-12-05T16:15:55.177Z,8.60
2018-12-05T16:18:23.616Z,8.60
2018-12-05T16:20:52.262Z,8.60
2018-12-05T16:23:20.876Z,8.70
2018-12-05T16:25:49.982Z,8.70
2018-12-05T16:28:18.736Z,8.70
2018-12-05T16:30:47.532Z,8.70
2018-12-05T16:33:16.880Z,8.70
2018-12-05T16:35:45.579Z,8.70
2018-12-05T16:38:14.246Z,8.70
2018-12-05T16:40:43.547Z,8.70
2018-12-05T16:43:12.829Z,8.80
2018-12-05T16:45:41.553Z,8.70
2018-12-05T16:48:10.077Z,8.70
2018-12-05T16:50:38.865Z,8.70
2018-12-05T16:53:07.542Z,8.60
2018-12-05T16:55:36.197Z,8.60
2018-12-05T16:58:05.047Z,8.60
2018-12-05T17:00:33.921Z,8.50
2018-12-05T17:03:05.450Z,8.50
2018-12-05T17:05:34.936Z,8.50
2018-12-05T17:08:03.541Z,8.40
2018-12-05T17:10:32.080Z,8.40
2018-12-05T17:13:01.359Z,8.40
2018-12-05T17:15:29.879Z,8.40
2018-12-05T17:17:58.875Z,8.40
2018-12-05T17:20:28.255Z,8.40
2018-12-05T17:22:59.774Z,8.40
2018-12-05T17:25:28.438Z,8.40
2018-12-05T17:27:57.872Z,8.40
2018-12-05T17:30:26.941Z,8.40
2018-12-05T17:32:55.682Z,8.40
2018-12-05T17:35:24.840Z,8.40
2018-12-05T17:37:53.601Z,8.40
2018-12-05T17:40:22.184Z,8.30
2018-12-05T17:42:50.689Z,8.30
2018-12-05T17:45:19.260Z,8.30
2018-12-05T17:47:47.767Z,8.30
2018-12-05T17:50:16.418Z,8.20
2018-12-05T17:52:44.974Z,8.20
2018-12-05T17:55:13.577Z,8.10
2018-12-05T17:57:42.157Z,8.20
2018-12-05T18:00:10.898Z,8.20
2018-12-05T18:02:39.520Z,8.20
2018-12-05T18:05:08.216Z,8.20
2018-12-05T18:07:36.919Z,8.10
2018-12-05T18:10:06.248Z,8.10
2018-12-05T18:12:35.052Z,8.10
2018-12-05T18:15:04.140Z,8.00
2018-12-05T18:17:32.805Z,7.90
2018-12-05T18:20:01.395Z,7.80
2018-12-05T18:22:30.027Z,7.80
2018-12-05T18:24:59.318Z,7.80
2018-12-05T18:27:27.901Z,7.90
2018-12-05T18:29:56.583Z,7.90
2018-12-05T18:32:25.167Z,7.90
2018-12-05T18:34:54.007Z,7.90
2018-12-05T18:37:22.766Z,8.00
2018-12-05T18:39:51.441Z,7.90
2018-12-05T18:42:20.020Z,8.00
2018-12-05T18:44:48.548Z,7.90
2018-12-05T18:47:17.165Z,7.90
2018-12-05T18:49:45.791Z,7.90
2018-12-05T18:52:14.571Z,7.80
2018-12-05T18:54:43.992Z,7.80
2018-12-05T18:57:12.695Z,7.80
2018-12-05T18:59:41.287Z,7.70
2018-12-05T19:02:09.973Z,7.80
2018-12-05T19:04:38.517Z,7.70
2018-12-05T19:07:07.048Z,7.80
2018-12-05T19:09:35.697Z,7.80
2018-12-05T19:12:04.199Z,7.80
2018-12-05T19:14:38.240Z,7.80
2018-12-05T19:17:06.963Z,7.80
2018-12-05T19:19:35.630Z,7.80
2018-12-05T19:22:04.311Z,7.90
2018-12-05T19:24:32.966Z,7.90
2018-12-05T19:27:01.504Z,7.90
2018-12-05T19:29:30.046Z,7.90
2018-12-05T19:31:58.871Z,7.90
2018-12-05T19:34:27.583Z,7.90
2018-12-05T19:36:56.144Z,7.80
2018-12-05T19:39:24.912Z,7.80
2018-12-05T19:41:53.900Z,7.80
2018-12-05T19:44:23.056Z,7.80
2018-12-05T19:46:51.836Z,7.80
2018-12-05T19:49:20.591Z,7.80
2018-12-05T19:51:49.244Z,7.70
2018-12-05T19:54:18.116Z,7.70
2018-12-05T19:56:47.548Z,7.70
2018-12-05T19:59:16.995Z,7.60
2018-12-05T20:01:46.131Z,7.60
2018-12-05T20:04:15.503Z,7.60
2018-12-05T20:06:44.094Z,7.60
2018-12-05T20:09:12.764Z,7.60
2018-12-05T20:11:41.732Z,7.60
2018-12-05T20:14:21.952Z,7.60
2018-12-05T20:16:50.977Z,7.60
2018-12-05T20:19:19.816Z,7.60
2018-12-05T20:21:49.187Z,7.60
2018-12-05T20:24:17.833Z,7.60
2018-12-05T20:26:46.736Z,7.60
2018-12-05T20:29:15.588Z,7.50
2018-12-05T20:31:44.441Z,7.50
2018-12-05T20:34:13.226Z,7.40
2018-12-05T20:36:41.838Z,7.30
2018-12-05T20:39:11.200Z,7.30
2018-12-05T20:41:39.712Z,7.30
2018-12-05T20:44:08.366Z,7.40
2018-12-05T20:46:36.928Z,7.50
2018-12-05T20:49:06.277Z,7.50
2018-12-05T20:51:34.845Z,7.60
2018-12-05T20:54:03.591Z,7.60
2018-12-05T20:56:32.540Z,7.60
2018-12-05T20:59:02.076Z,7.60
2018-12-05T21:01:31.200Z,7.60
2018-12-05T21:04:00.480Z,7.60
2018-12-05T21:06:29.255Z,7.60
2018-12-05T21:08:57.904Z,7.60
2018-12-05T21:11:27.139Z,7.60
2018-12-05T21:13:56.653Z,7.60
2018-12-05T21:16:25.566Z,7.60
2018-12-05T21:18:54.851Z,7.60
2018-12-05T21:21:23.697Z,7.60
2018-12-05T21:23:52.535Z,7.70
2018-12-05T21:26:21.099Z,7.60
2018-12-05T21:28:49.576Z,7.60
2018-12-05T21:31:18.097Z,7.60
2018-12-05T21:33:47.304Z,7.60
2018-12-05T21:36:15.894Z,7.60
2018-12-05T21:38:44.371Z,7.70
2018-12-05T21:41:13.448Z,7.70
2018-12-05T21:43:42.095Z,7.60
2018-12-05T21:46:11.361Z,7.60
2018-12-05T21:48:40.033Z,7.60
2018-12-05T21:51:09.397Z,7.60
2018-12-05T21:53:38.126Z,7.60
2018-12-05T21:56:07.264Z,7.60
2018-12-05T21:58:35.941Z,7.60
2018-12-05T22:01:04.802Z,7.60
2018-12-05T22:03:33.954Z,7.60
2018-12-05T22:06:09.111Z,7.60
2018-12-05T22:08:37.785Z,7.60
2018-12-05T22:11:07.023Z,7.60
2018-12-05T22:13:37.035Z,7.50
2018-12-05T22:16:05.879Z,7.50
2018-12-05T22:18:34.569Z,7.50
2018-12-05T22:21:03.356Z,7.40
2018-12-05T22:23:32.560Z,7.40
2018-12-05T22:26:01.157Z,7.50
2018-12-05T22:28:30.011Z,7.50
2018-12-05T22:30:59.251Z,7.50
2018-12-05T22:33:28.623Z,7.60
2018-12-05T22:35:57.289Z,7.60
2018-12-05T22:38:26.004Z,7.60
2018-12-05T22:40:55.368Z,7.60
2018-12-05T22:43:24.261Z,7.60
2018-12-05T22:45:53.183Z,7.60
2018-12-05T22:48:21.849Z,7.60
2018-12-05T22:50:51.232Z,7.50
2018-12-05T22:53:20.069Z,7.40
2018-12-05T22:55:49.819Z,7.40
2018-12-05T22:58:18.783Z,7.40
2018-12-05T23:00:51.863Z,7.40
2018-12-05T23:03:20.587Z,7.40
2018-12-05T23:05:49.403Z,7.50
2018-12-05T23:08:18.343Z,7.50
2018-12-05T23:10:47.016Z,7.50
2018-12-05T23:13:16.313Z,7.50
2018-12-05T23:15:45.525Z,7.50
2018-12-05T23:18:14.122Z,7.60
2018-12-05T23:20:43.287Z,7.60
2018-12-05T23:23:12.035Z,7.50
2018-12-05T23:25:40.928Z,7.40
2018-12-05T23:28:09.492Z,7.40
2018-12-05T23:30:39.305Z,7.50
2018-12-05T23:34:11.508Z,7.50
2018-12-05T23:36:40.148Z,7.60
2018-12-05T23:39:09.800Z,7.50
2018-12-05T23:41:38.942Z,7.50
2018-12-05T23:44:07.866Z,7.50
2018-12-05T23:46:36.484Z,7.50
2018-12-05T23:49:05.309Z,7.50
2018-12-05T23:51:34.969Z,7.50
2018-12-05T23:54:03.604Z,7.50
2018-12-05T23:56:32.443Z,7.50
2018-12-05T23:59:01.191Z,7.50
